createdAt,value
2022-11-17T00:00:06.872Z,10.60
2022-11-17T00:02:38.471Z,10.60
2022-11-17T00:05:07.579Z,10.70
2022-11-17T00:07:38.024Z,10.70
2022-11-17T00:10:08.060Z,10.70
2022-11-17T00:12:53.853Z,10.70
2022-11-17T00:15:22.969Z,10.70
2022-11-17T00:18:11.261Z,10.80
2022-11-17T00:20:58.074Z,10.80
2022-11-17T00:23:47.658Z,10.80
2022-11-17T00:26:17.689Z,10.80
2022-11-17T00:28:46.986Z,10.90
2022-11-17T00:31:33.501Z,10.90
2022-11-17T00:34:08.242Z,11.00
2022-11-17T00:36:42.622Z,10.90
2022-11-17T00:39:14.885Z,11.00
2022-11-17T00:41:43.862Z,10.90
2022-11-17T00:44:12.423Z,10.90
2022-11-17T00:46:41.829Z,10.80
2022-11-17T00:49:12.041Z,10.90
2022-11-17T00:51:41.328Z,10.80
2022-11-17T00:54:15.810Z,10.60
2022-11-17T00:56:44.153Z,10.70
2022-11-17T00:59:13.342Z,10.50
2022-11-17T01:01:43.841Z,10.60
2022-11-17T01:04:14.989Z,10.60
2022-11-17T01:06:46.638Z,10.70
2022-11-17T01:09:20.099Z,10.60
2022-11-17T01:11:49.720Z,10.90
2022-11-17T01:14:22.338Z,10.60
2022-11-17T01:16:51.298Z,10.60
2022-11-17T01:19:20.397Z,10.60
2022-11-17T01:21:49.135Z,10.60
2022-11-17T01:24:19.786Z,10.60
2022-11-17T01:26:50.588Z,10.70
2022-11-17T01:29:19.832Z,10.70
2022-11-17T01:31:52.321Z,10.70
2022-11-17T01:34:21.623Z,10.80
2022-11-17T01:37:07.863Z,10.80
2022-11-17T01:39:37.739Z,10.80
2022-11-17T01:42:15.281Z,10.70
2022-11-17T01:44:59.717Z,10.70
2022-11-17T01:47:41.344Z,10.60
2022-11-17T01:50:26.068Z,10.50
2022-11-17T01:53:00.092Z,10.50
2022-11-17T01:55:36.791Z,10.40
2022-11-17T01:58:12.746Z,10.40
2022-11-17T02:00:41.461Z,10.30
2022-11-17T02:03:11.311Z,10.40
2022-11-17T02:05:51.758Z,10.40
2022-11-17T02:08:24.586Z,10.50
2022-11-17T02:10:56.138Z,10.40
2022-11-17T02:13:25.548Z,10.40
2022-11-17T02:15:54.833Z,10.40
2022-11-17T02:18:23.526Z,10.60
2022-11-17T02:21:12.053Z,10.30
2022-11-17T02:24:43.002Z,10.40
2022-11-17T02:27:45.500Z,10.30
2022-11-17T02:30:18.455Z,10.30
2022-11-17T02:33:02.715Z,10.30
2022-11-17T02:35:41.945Z,10.50
2022-11-17T02:38:29.952Z,10.50
2022-11-17T02:41:09.604Z,10.60
2022-11-17T02:44:04.379Z,10.70
2022-11-17T02:46:45.086Z,10.60
2022-11-17T02:49:22.255Z,10.60
2022-11-17T02:51:55.644Z,10.70
2022-11-17T02:54:28.134Z,10.60
2022-11-17T02:56:57.033Z,10.70
2022-11-17T02:59:32.092Z,10.70
2022-11-17T03:02:36.602Z,10.60
2022-11-17T03:05:18.150Z,10.50
2022-11-17T03:08:15.580Z,10.40
2022-11-17T03:10:55.831Z,10.30
2022-11-17T03:13:41.154Z,10.20
2022-11-17T03:16:30.534Z,10.20
2022-11-17T03:19:10.217Z,10.10
2022-11-17T03:21:46.730Z,10.10
2022-11-17T03:24:22.654Z,10.10
2022-11-17T03:26:59.542Z,10.10
2022-11-17T03:29:33.914Z,10.10
2022-11-17T03:32:08.091Z,10.40
2022-11-17T03:34:44.927Z,10.30
2022-11-17T03:37:20.603Z,10.30
2022-11-17T03:39:55.172Z,10.50
2022-11-17T03:42:28.950Z,10.30
2022-11-17T03:45:03.762Z,10.40
2022-11-17T03:47:36.801Z,10.30
2022-11-17T03:50:15.166Z,10.40
2022-11-17T03:52:46.105Z,10.40
2022-11-17T03:55:15.652Z,10.50
2022-11-17T03:57:55.050Z,10.50
2022-11-17T04:00:23.956Z,10.50
2022-11-17T04:02:58.922Z,10.50
2022-11-17T04:05:27.911Z,10.60
2022-11-17T04:07:56.317Z,10.50
2022-11-17T04:10:26.827Z,10.60
2022-11-17T04:13:13.667Z,10.50
2022-11-17T04:15:57.421Z,10.50
2022-11-17T04:18:28.089Z,10.40
2022-11-17T04:20:58.423Z,10.50
2022-11-17T04:23:28.476Z,10.50
2022-11-17T04:26:15.673Z,10.60
2022-11-17T04:28:48.714Z,10.60
2022-11-17T04:31:20.594Z,10.80
2022-11-17T04:33:53.400Z,10.70
2022-11-17T04:36:25.164Z,10.70
2022-11-17T04:38:56.118Z,10.70
2022-11-17T04:41:45.369Z,10.70
2022-11-17T04:44:17.318Z,10.70
2022-11-17T04:46:47.429Z,10.70
2022-11-17T04:49:19.409Z,10.70
2022-11-17T04:51:49.850Z,10.70
2022-11-17T04:54:21.704Z,10.70
2022-11-17T04:56:50.125Z,10.60
2022-11-17T04:59:19.055Z,10.50
2022-11-17T05:01:47.650Z,10.50
2022-11-17T05:04:40.965Z,10.60
2022-11-17T05:07:10.090Z,10.70
2022-11-17T05:09:39.853Z,10.90
2022-11-17T05:12:27.345Z,11.00
2022-11-17T05:14:56.234Z,11.10
2022-11-17T05:17:23.597Z,11.20
2022-11-17T05:19:53.543Z,11.30
2022-11-17T05:22:42.096Z,11.30
2022-11-17T05:25:11.458Z,11.40
2022-11-17T05:27:40.409Z,11.40
2022-11-17T05:30:11.133Z,11.50
2022-11-17T05:32:39.838Z,11.50
2022-11-17T05:35:10.696Z,11.60
2022-11-17T05:37:39.177Z,11.60
2022-11-17T05:40:09.663Z,11.60
2022-11-17T05:42:38.197Z,11.60
2022-11-17T05:45:08.158Z,11.60
2022-11-17T05:47:37.097Z,11.60
2022-11-17T05:50:06.551Z,11.60
2022-11-17T05:52:36.193Z,11.60
2022-11-17T05:55:04.753Z,11.70
2022-11-17T05:57:34.859Z,11.80
2022-11-17T06:00:05.961Z,11.90
2022-11-17T06:02:50.459Z,11.90
2022-11-17T06:05:20.713Z,11.90
2022-11-17T06:07:52.004Z,11.90
2022-11-17T06:10:20.318Z,11.90
2022-11-17T06:12:49.869Z,11.90
2022-11-17T06:15:18.389Z,11.90
2022-11-17T06:17:54.056Z,11.90
2022-11-17T06:20:29.900Z,12.00
2022-11-17T06:23:05.585Z,11.90
2022-11-17T06:25:37.046Z,11.80
2022-11-17T06:28:12.031Z,11.80
2022-11-17T06:30:41.925Z,11.90
2022-11-17T06:33:15.549Z,11.90
2022-11-17T06:35:47.703Z,11.90
2022-11-17T06:38:18.170Z,12.00
2022-11-17T06:40:46.460Z,11.90
2022-11-17T06:43:15.677Z,11.80
2022-11-17T06:45:46.883Z,11.90
2022-11-17T06:48:18.388Z,11.80
2022-11-17T06:50:49.741Z,11.80
2022-11-17T06:53:19.672Z,11.70
2022-11-17T06:55:50.649Z,11.70
2022-11-17T06:58:19.098Z,11.70
2022-11-17T07:00:48.491Z,11.70
2022-11-17T07:03:16.808Z,11.70
2022-11-17T07:05:45.126Z,11.80
2022-11-17T07:08:14.336Z,11.80
2022-11-17T07:10:49.137Z,11.90
2022-11-17T07:13:18.463Z,11.90
2022-11-17T07:15:46.784Z,12.00
2022-11-17T07:18:17.333Z,11.90
2022-11-17T07:20:45.720Z,11.90
2022-11-17T07:23:15.492Z,12.00
2022-11-17T07:25:45.228Z,12.10
2022-11-17T07:28:15.415Z,12.10
2022-11-17T07:30:43.937Z,12.20
2022-11-17T07:33:12.972Z,12.30
2022-11-17T07:35:41.452Z,12.50
2022-11-17T07:38:10.219Z,12.50
2022-11-17T07:40:38.563Z,12.60
2022-11-17T07:43:08.645Z,12.60
2022-11-17T07:45:38.770Z,12.60
2022-11-17T07:48:08.085Z,12.60
2022-11-17T07:50:39.774Z,12.70
2022-11-17T07:53:08.612Z,12.70
2022-11-17T07:55:37.315Z,12.60
2022-11-17T07:58:07.373Z,12.80
2022-11-17T08:00:36.156Z,12.80
2022-11-17T08:03:06.241Z,12.80
2022-11-17T08:05:43.063Z,12.90
2022-11-17T08:08:16.301Z,12.90
2022-11-17T08:10:46.237Z,12.90
2022-11-17T08:13:16.307Z,12.90
2022-11-17T08:15:44.913Z,12.90
2022-11-17T08:18:13.922Z,12.90
2022-11-17T08:20:42.429Z,13.00
2022-11-17T08:23:10.992Z,13.10
2022-11-17T08:25:40.094Z,13.10
2022-11-17T08:28:08.534Z,13.20
2022-11-17T08:30:38.215Z,13.10
2022-11-17T08:33:07.318Z,13.00
2022-11-17T08:35:37.629Z,13.00
2022-11-17T08:38:06.936Z,13.00
2022-11-17T08:40:35.520Z,12.90
2022-11-17T08:43:03.923Z,12.90
2022-11-17T08:45:32.797Z,13.00
2022-11-17T08:48:02.915Z,12.80
2022-11-17T08:50:31.329Z,12.80
2022-11-17T08:52:59.818Z,12.70
2022-11-17T08:55:28.155Z,12.70
2022-11-17T08:57:56.736Z,12.90
2022-11-17T09:00:25.283Z,12.80
2022-11-17T09:02:54.019Z,12.80
2022-11-17T09:05:25.453Z,12.70
2022-11-17T09:07:54.126Z,12.70
2022-11-17T09:10:23.299Z,12.80
2022-11-17T09:12:52.288Z,12.70
2022-11-17T09:15:22.153Z,12.70
2022-11-17T09:17:50.864Z,12.70
2022-11-17T09:20:21.054Z,12.60
2022-11-17T09:22:50.911Z,12.50
2022-11-17T09:25:19.509Z,12.50
2022-11-17T09:27:53.039Z,12.50
2022-11-17T09:30:22.248Z,12.50
2022-11-17T09:32:51.839Z,12.50
2022-11-17T09:35:20.624Z,12.50
2022-11-17T09:37:50.707Z,12.50
2022-11-17T09:40:21.204Z,12.50
2022-11-17T09:42:50.349Z,12.50
2022-11-17T09:45:27.458Z,12.50
2022-11-17T09:48:33.477Z,12.50
2022-11-17T09:50:58.222Z,12.50
2022-11-17T09:53:37.997Z,12.60
2022-11-17T09:56:11.595Z,12.70
2022-11-17T09:58:47.450Z,12.70
2022-11-17T10:01:19.039Z,12.80
2022-11-17T10:03:51.082Z,12.80
2022-11-17T10:06:23.869Z,12.90
2022-11-17T10:09:03.645Z,12.90
2022-11-17T10:11:36.061Z,13.10
2022-11-17T10:14:14.171Z,13.40
2022-11-17T10:16:46.385Z,13.80
2022-11-17T10:19:20.600Z,14.10
2022-11-17T10:21:55.768Z,14.10
2022-11-17T10:24:38.367Z,14.00
2022-11-17T10:27:20.247Z,13.80
2022-11-17T10:30:00.396Z,13.60
2022-11-17T10:32:30.679Z,13.50
2022-11-17T10:35:16.765Z,13.30
2022-11-17T10:37:55.567Z,13.30
2022-11-17T10:40:28.247Z,13.10
2022-11-17T10:43:24.245Z,13.00
2022-11-17T10:45:58.198Z,12.80
2022-11-17T10:48:30.849Z,12.70
2022-11-17T10:51:01.949Z,12.60
2022-11-17T10:53:45.140Z,12.70
2022-11-17T10:56:21.718Z,12.90
2022-11-17T10:59:02.945Z,13.40
2022-11-17T11:01:35.408Z,13.60
2022-11-17T11:04:06.889Z,13.70
2022-11-17T11:06:36.535Z,14.30
2022-11-17T11:09:13.221Z,14.80
2022-11-17T11:11:49.677Z,15.50
2022-11-17T11:14:28.823Z,16.30
2022-11-17T11:16:57.264Z,16.70
2022-11-17T11:19:25.999Z,16.70
2022-11-17T11:22:29.153Z,16.80
2022-11-17T11:25:11.472Z,16.30
2022-11-17T11:28:01.688Z,16.40
2022-11-17T11:30:38.568Z,16.60
2022-11-17T11:33:26.586Z,17.10
2022-11-17T11:36:15.415Z,17.30
2022-11-17T11:38:58.061Z,17.30
2022-11-17T11:41:56.203Z,17.30
2022-11-17T11:44:46.787Z,17.70
2022-11-17T11:47:38.643Z,18.40
2022-11-17T11:50:17.878Z,18.70
2022-11-17T11:52:52.205Z,18.40
2022-11-17T11:55:26.481Z,18.30
2022-11-17T11:58:03.685Z,17.50
2022-11-17T12:00:35.708Z,17.00
2022-11-17T12:03:20.885Z,16.50
2022-11-17T12:06:20.686Z,16.10
2022-11-17T12:09:03.390Z,15.50
2022-11-17T12:11:51.451Z,15.10
2022-11-17T12:14:20.353Z,14.80
2022-11-17T12:16:50.271Z,14.50
2022-11-17T12:20:09.214Z,14.30
2022-11-17T12:23:19.454Z,14.10
2022-11-17T12:25:54.187Z,13.80
2022-11-17T12:28:36.503Z,13.70
2022-11-17T12:31:10.343Z,13.60
2022-11-17T12:34:25.646Z,13.60
2022-11-17T12:37:26.969Z,13.60
2022-11-17T12:40:07.926Z,13.50
2022-11-17T12:42:38.574Z,13.60
2022-11-17T12:45:12.902Z,13.60
2022-11-17T12:47:48.121Z,13.70
2022-11-17T12:51:00.563Z,13.90
2022-11-17T12:53:43.337Z,14.10
2022-11-17T12:56:42.309Z,14.10
2022-11-17T12:59:58.647Z,13.80
2022-11-17T13:02:47.327Z,13.80
2022-11-17T13:05:23.401Z,14.00
2022-11-17T13:08:22.600Z,13.70
2022-11-17T13:11:05.426Z,13.70
2022-11-17T13:13:36.999Z,13.80
2022-11-17T13:16:13.606Z,13.90
2022-11-17T13:18:44.707Z,13.90
2022-11-17T13:21:30.630Z,13.80
2022-11-17T13:24:01.615Z,13.80
2022-11-17T13:26:37.655Z,13.80
2022-11-17T13:29:09.530Z,13.80
2022-11-17T13:31:37.932Z,13.50
2022-11-17T13:34:15.235Z,13.30
2022-11-17T13:36:54.400Z,13.10
2022-11-17T13:39:27.525Z,12.90
2022-11-17T13:41:57.957Z,12.90
2022-11-17T13:44:29.599Z,12.70
2022-11-17T13:46:58.648Z,12.60
2022-11-17T13:49:35.375Z,12.50
2022-11-17T13:52:05.122Z,12.50
2022-11-17T13:54:36.218Z,12.60
2022-11-17T13:57:10.166Z,12.70
2022-11-17T13:59:40.482Z,12.80
2022-11-17T14:02:29.546Z,12.70
2022-11-17T14:05:27.375Z,12.80
2022-11-17T14:07:58.661Z,12.70
2022-11-17T14:10:37.623Z,12.70
2022-11-17T14:13:30.606Z,12.60
2022-11-17T14:16:01.965Z,12.70
2022-11-17T14:18:36.954Z,12.60
2022-11-17T14:21:09.439Z,12.60
2022-11-17T14:23:38.549Z,12.60
2022-11-17T14:26:17.891Z,12.60
2022-11-17T14:28:46.824Z,12.60
2022-11-17T14:31:15.838Z,12.50
2022-11-17T14:33:44.487Z,12.50
2022-11-17T14:36:18.056Z,12.30
2022-11-17T14:38:47.899Z,12.20
2022-11-17T14:41:19.288Z,12.20
2022-11-17T14:43:49.161Z,12.10
2022-11-17T14:46:24.343Z,12.20
2022-11-17T14:48:53.657Z,12.30
2022-11-17T14:51:23.568Z,12.00
2022-11-17T14:53:52.422Z,12.00
2022-11-17T14:56:25.688Z,11.90
2022-11-17T14:58:59.990Z,11.90
2022-11-17T15:01:31.503Z,11.90
2022-11-17T15:04:27.262Z,11.80
2022-11-17T15:06:52.867Z,11.70
2022-11-17T15:09:21.788Z,11.70
2022-11-17T15:11:53.157Z,11.70
2022-11-17T15:14:21.509Z,11.70
2022-11-17T15:16:50.748Z,11.80
2022-11-17T15:19:19.337Z,11.80
2022-11-17T15:21:48.349Z,11.80
2022-11-17T15:24:17.930Z,11.80
2022-11-17T15:26:47.368Z,11.80
2022-11-17T15:29:17.606Z,11.80
2022-11-17T15:31:47.215Z,11.90
2022-11-17T15:34:19.925Z,11.90
2022-11-17T15:36:49.546Z,12.00
2022-11-17T15:39:18.546Z,12.10
2022-11-17T15:41:47.204Z,12.00
2022-11-17T15:44:19.103Z,12.00
2022-11-17T15:46:48.106Z,11.90
2022-11-17T15:49:18.065Z,11.80
2022-11-17T15:51:46.876Z,11.60
2022-11-17T15:54:20.322Z,11.60
2022-11-17T15:56:49.492Z,11.40
2022-11-17T15:59:19.618Z,11.40
2022-11-17T16:01:48.879Z,11.30
2022-11-17T16:04:17.355Z,11.20
2022-11-17T16:06:47.970Z,11.20
2022-11-17T16:09:17.224Z,11.20
2022-11-17T16:11:46.056Z,11.20
2022-11-17T16:14:15.092Z,11.20
2022-11-17T16:16:48.085Z,11.20
2022-11-17T16:19:16.789Z,11.20
2022-11-17T16:21:45.824Z,11.30
2022-11-17T16:24:15.264Z,11.10
2022-11-17T16:26:45.245Z,11.10
2022-11-17T16:29:13.812Z,11.00
2022-11-17T16:31:42.377Z,11.00
2022-11-17T16:34:17.949Z,10.90
2022-11-17T16:36:47.110Z,10.90
2022-11-17T16:39:18.192Z,11.10
2022-11-17T16:41:50.534Z,10.80
2022-11-17T16:44:20.379Z,10.70
2022-11-17T16:46:50.422Z,10.70
2022-11-17T16:49:21.079Z,10.60
2022-11-17T16:51:51.259Z,10.50
2022-11-17T16:54:20.335Z,10.60
2022-11-17T16:56:49.020Z,10.60
2022-11-17T16:59:18.003Z,10.60
2022-11-17T17:01:47.686Z,10.70
2022-11-17T17:04:16.969Z,10.70
2022-11-17T17:06:46.991Z,10.70
2022-11-17T17:09:18.723Z,10.70
2022-11-17T17:11:48.871Z,10.70
2022-11-17T17:14:19.961Z,10.80
2022-11-17T17:16:48.613Z,11.00
2022-11-17T17:19:18.436Z,11.20
2022-11-17T17:21:48.350Z,11.40
2022-11-17T17:24:17.446Z,11.50
2022-11-17T17:26:46.040Z,11.60
2022-11-17T17:29:16.186Z,11.70
2022-11-17T17:31:44.724Z,11.80
2022-11-17T17:34:21.107Z,11.70
2022-11-17T17:36:51.376Z,11.90
2022-11-17T17:39:20.204Z,11.80
2022-11-17T17:41:48.760Z,11.90
2022-11-17T17:44:19.811Z,11.80
2022-11-17T17:46:49.410Z,11.80
2022-11-17T17:49:20.185Z,11.90
2022-11-17T17:51:50.307Z,11.70
2022-11-17T17:54:24.165Z,11.90
2022-11-17T17:56:53.073Z,11.80
2022-11-17T17:59:22.718Z,11.60
2022-11-17T18:01:51.559Z,11.70
2022-11-17T18:04:20.180Z,11.50
2022-11-17T18:06:50.173Z,11.40
2022-11-17T18:09:20.314Z,11.20
2022-11-17T18:11:51.170Z,11.10
2022-11-17T18:14:24.658Z,11.00
2022-11-17T18:16:54.700Z,10.80
2022-11-17T18:19:27.104Z,10.80
2022-11-17T18:21:59.046Z,10.70
2022-11-17T18:24:27.815Z,10.70
2022-11-17T18:26:56.061Z,10.60
2022-11-17T18:29:26.130Z,10.60
2022-11-17T18:31:54.748Z,10.60
2022-11-17T18:34:25.621Z,10.60
2022-11-17T18:36:57.800Z,10.60
2022-11-17T18:39:28.353Z,10.60
2022-11-17T18:41:56.657Z,10.60
2022-11-17T18:44:25.363Z,10.70
2022-11-17T18:46:58.241Z,10.60
2022-11-17T18:49:31.146Z,10.70
2022-11-17T18:52:02.081Z,10.70
2022-11-17T18:54:30.667Z,10.70
2022-11-17T18:57:00.436Z,10.70
2022-11-17T18:59:29.084Z,10.90
2022-11-17T19:01:57.961Z,10.70
2022-11-17T19:04:26.691Z,10.60
2022-11-17T19:06:55.229Z,10.60
2022-11-17T19:09:24.896Z,10.50
2022-11-17T19:11:54.221Z,10.60
2022-11-17T19:14:23.637Z,10.30
2022-11-17T19:16:51.931Z,10.20
2022-11-17T19:19:20.647Z,10.10
2022-11-17T19:21:48.879Z,10.20
2022-11-17T19:24:18.270Z,9.90
2022-11-17T19:26:48.225Z,9.80
2022-11-17T19:29:17.903Z,9.90
2022-11-17T19:31:47.084Z,9.70
2022-11-17T19:34:16.347Z,9.60
2022-11-17T19:36:45.339Z,9.50
2022-11-17T19:39:15.544Z,9.50
2022-11-17T19:41:45.184Z,9.40
2022-11-17T19:44:15.923Z,9.40
2022-11-17T19:46:44.298Z,9.30
2022-11-17T19:49:14.005Z,9.30
2022-11-17T19:51:43.141Z,9.30
2022-11-17T19:54:14.103Z,9.30
2022-11-17T19:56:42.888Z,9.30
2022-11-17T19:59:15.974Z,9.40
2022-11-17T20:01:47.123Z,9.30
2022-11-17T20:04:15.719Z,9.30
2022-11-17T20:06:45.008Z,9.30
2022-11-17T20:09:16.246Z,9.40
2022-11-17T20:11:44.929Z,9.30
2022-11-17T20:14:14.563Z,9.50
2022-11-17T20:16:42.940Z,9.40
2022-11-17T20:19:14.169Z,9.40
2022-11-17T20:21:42.768Z,9.40
2022-11-17T20:24:11.419Z,9.50
2022-11-17T20:26:41.040Z,9.50
2022-11-17T20:29:09.972Z,9.50
2022-11-17T20:31:38.960Z,9.50
2022-11-17T20:34:07.577Z,9.60
2022-11-17T20:36:37.629Z,9.60
2022-11-17T20:39:08.152Z,9.60
2022-11-17T20:41:36.764Z,9.60
2022-11-17T20:44:05.874Z,9.50
2022-11-17T20:46:34.139Z,9.50
2022-11-17T20:49:02.480Z,9.50
2022-11-17T20:51:30.820Z,9.50
2022-11-17T20:54:00.938Z,9.60
2022-11-17T20:56:29.408Z,9.50
2022-11-17T20:58:57.805Z,9.50
2022-11-17T21:01:27.253Z,9.60
2022-11-17T21:03:55.569Z,9.60
2022-11-17T21:06:24.696Z,9.60
2022-11-17T21:08:53.941Z,9.60
2022-11-17T21:11:44.123Z,9.70
2022-11-17T21:14:14.767Z,9.50
2022-11-17T21:16:46.030Z,9.50
2022-11-17T21:19:15.972Z,9.60
2022-11-17T21:21:46.300Z,9.60
2022-11-17T21:24:14.562Z,9.50
2022-11-17T21:26:44.405Z,9.80
2022-11-17T21:29:13.687Z,9.50
2022-11-17T21:31:41.966Z,9.50
2022-11-17T21:34:17.541Z,9.50
2022-11-17T21:36:46.378Z,9.50
2022-11-17T21:39:18.643Z,9.40
2022-11-17T21:41:49.276Z,9.60
2022-11-17T21:44:18.077Z,9.50
2022-11-17T21:46:48.165Z,9.40
2022-11-17T21:49:16.939Z,9.40
2022-11-17T21:51:46.157Z,9.40
2022-11-17T21:54:14.848Z,9.50
2022-11-17T21:56:43.106Z,9.40
2022-11-17T21:59:15.151Z,9.40
2022-11-17T22:01:43.957Z,9.40
2022-11-17T22:04:13.469Z,9.50
2022-11-17T22:06:42.252Z,9.50
2022-11-17T22:09:14.317Z,9.90
2022-11-17T22:11:44.011Z,9.50
2022-11-17T22:14:16.131Z,9.50
2022-11-17T22:16:47.510Z,9.50
2022-11-17T22:19:18.387Z,9.60
2022-11-17T22:21:49.790Z,9.60
2022-11-17T22:24:19.662Z,9.60
2022-11-17T22:26:48.509Z,9.80
2022-11-17T22:29:21.898Z,9.60
2022-11-17T22:31:50.896Z,9.60
2022-11-17T22:34:20.689Z,9.70
2022-11-17T22:36:49.417Z,9.70
2022-11-17T22:39:18.352Z,9.70
2022-11-17T22:41:47.400Z,9.70
2022-11-17T22:44:18.699Z,9.70
2022-11-17T22:46:47.694Z,9.70
2022-11-17T22:49:16.249Z,9.70
2022-11-17T22:52:04.939Z,9.70
2022-11-17T22:54:34.565Z,9.70
2022-11-17T22:57:03.366Z,9.80
2022-11-17T22:59:34.346Z,9.80
2022-11-17T23:02:02.847Z,9.80
2022-11-17T23:04:31.422Z,9.80
2022-11-17T23:07:00.270Z,9.80
2022-11-17T23:09:28.624Z,9.80
2022-11-17T23:11:57.956Z,9.90
2022-11-17T23:14:26.341Z,9.80
2022-11-17T23:16:56.635Z,9.70
2022-11-17T23:19:25.949Z,9.80
2022-11-17T23:21:54.242Z,9.80
2022-11-17T23:24:23.327Z,9.80
2022-11-17T23:26:51.638Z,9.80
2022-11-17T23:29:20.040Z,10.00
2022-11-17T23:31:48.622Z,9.90
2022-11-17T23:34:18.516Z,9.90
2022-11-17T23:36:47.433Z,9.90
2022-11-17T23:39:16.603Z,9.90
2022-11-17T23:41:45.530Z,10.20
2022-11-17T23:44:14.173Z,9.80
2022-11-17T23:46:43.105Z,10.00
2022-11-17T23:49:12.221Z,10.20
2022-11-17T23:51:42.118Z,9.90
2022-11-17T23:54:14.147Z,9.80
2022-11-17T23:56:42.794Z,9.90
2022-11-17T23:59:11.633Z,9.80
